Pagrindinis puslapis
METAR-TAF:

METAR-TAF

Oro uostai :

Ramsaras, Iranas

platuma: 36-54N, ilguma: 050-40E, Aukštis: -23 m

Dabartinis oras

Ataskaita buvo paskelbta 21 minutes, ne 16:00 UTC
Vėjas 4 kt iš Pietryčių
Temperatūra 14°C
Drėgmė 82%
Slėgis 1012 hPa
Matomumas 10 km arba daugiau
Mažai debesys ne aukštis 4000 ft

METAR: OINR 311600Z 14004KT 9999 FEW040 14/11 Q1012

Laikas: 20:51 (16:21 UTC)


TAF: trūkstamas

Orai ataskaitas ir orų prognozės (METAR, TAF).

turimą stotys yra geltonos ir raudonos taškus žemėlapyje.

Perkelti pele per norėdami pamatyti stoties vardą.

Tada spustelėkite, norėdami matyti oro stebėjimo ir prognozės.

Norėdami pakeisti žemėlapį: spustelėkite ant žalios mygtukų su juodo kryžiaus žemyn,; žalią mygtuką su brūkšneliu, jei norite nutolinti; arba žalių rodyklių gretimoms žemėlapius.


METAR-TAF: